Time;durP1;ratioP1;P1;durP2;ratioP2;P2;SDS_P1;SDS_P2;PMS_P1;PMS_P2;Temp;Humidity;BMP_temperature;BMP_pressure;BME280_temperature;BME280_humidity;BME280_pressure;Samples;Min_cycle;Max_cycle;Signal;HPM_P1;HPM_P2
2022/07/06 00:01:56;;;;;;;0.40;0.40;;;16.50;97.20;;;;;;5111045;28;20208;-70
2022/07/06 00:04:44;;;;;;;0.40;0.40;;;16.50;97.50;;;;;;5109133;28;20196;-70
2022/07/06 00:07:32;;;;;;;0.40;0.40;;;16.50;97.80;;;;;;5107565;28;20285;-70
2022/07/06 00:10:21;;;;;;;0.40;0.40;;;16.50;98.20;;;;;;5109675;28;20215;-70
2022/07/06 00:13:09;;;;;;;0.40;0.40;;;16.40;98.40;;;;;;5107646;28;20196;-69
2022/07/06 00:15:58;;;;;;;0.40;0.40;;;16.50;98.80;;;;;;5114915;28;20219;-69
2022/07/06 00:18:46;;;;;;;0.40;0.40;;;16.50;99.00;;;;;;5114844;28;20208;-71
2022/07/06 00:21:34;;;;;;;0.40;0.40;;;16.50;99.20;;;;;;5113518;28;20586;-70
2022/07/06 00:24:23;;;;;;;0.40;0.40;;;16.50;99.60;;;;;;5112318;28;20192;-70
2022/07/06 00:27:11;;;;;;;0.40;0.40;;;16.50;99.90;;;;;;5113014;28;20336;-69
2022/07/06 00:29:59;;;;;;;0.40;0.40;;;16.50;99.90;;;;;;5111201;28;20196;-70
2022/07/06 00:32:48;;;;;;;0.40;0.40;;;16.40;99.90;;;;;;5113123;28;20201;-69
2022/07/06 00:35:37;;;;;;;0.40;0.40;;;16.40;99.90;;;;;;5113011;28;20224;-70
2022/07/06 00:38:25;;;;;;;0.40;0.40;;;16.30;99.90;;;;;;5113520;28;20200;-70
2022/07/06 00:41:13;;;;;;;0.40;0.40;;;16.20;99.90;;;;;;5113973;28;20192;-70
2022/07/06 00:44:07;;;;;;;0.40;0.40;;;16.10;99.90;;;;;;5115231;28;20200;-70
2022/07/06 00:46:55;;;;;;;0.40;0.40;;;16.00;99.90;;;;;;5115881;28;20463;-69
2022/07/06 00:52:52;;;;;;;0.93;0.93;;;15.80;99.90;;;;;;5115471;28;20192;-71
2022/07/06 00:55:41;;;;;;;0.40;0.40;;;15.60;99.90;;;;;;5114945;28;20226;-70
2022/07/06 00:58:29;;;;;;;0.40;0.40;;;15.60;99.90;;;;;;5113763;28;20204;-70
2022/07/06 01:01:17;;;;;;;0.40;0.40;;;15.50;99.90;;;;;;5112500;28;20222;-70
2022/07/06 01:04:05;;;;;;;0.40;0.40;;;15.40;99.90;;;;;;5114077;28;20203;-70
2022/07/06 01:06:55;;;;;;;0.40;0.40;;;15.40;99.90;;;;;;5112242;28;20228;-70
2022/07/06 01:09:43;;;;;;;0.40;0.40;;;15.40;99.90;;;;;;5111241;28;20196;-70
2022/07/06 01:12:32;;;;;;;0.40;0.40;;;15.40;99.90;;;;;;5112575;28;20226;-70
2022/07/06 01:15:21;;;;;;;0.40;0.40;;;15.40;99.90;;;;;;5115767;28;20257;-71
2022/07/06 01:18:11;;;;;;;0.40;0.40;;;15.40;99.90;;;;;;5116394;28;20234;-70
2022/07/06 01:21:09;;;;;;;0.50;0.50;;;15.50;99.90;;;;;;5115558;28;20222;-69
2022/07/06 01:23:57;;;;;;;0.40;0.40;;;15.60;99.90;;;;;;5116598;28;20200;-70
2022/07/06 01:26:45;;;;;;;0.40;0.40;;;15.60;99.90;;;;;;5115766;28;20208;-71
2022/07/06 01:29:34;;;;;;;0.40;0.40;;;15.60;99.90;;;;;;5115780;28;20196;-69
2022/07/06 01:32:22;;;;;;;0.40;0.40;;;15.50;99.90;;;;;;5114555;28;20204;-71
2022/07/06 01:35:12;;;;;;;0.40;0.40;;;15.50;99.90;;;;;;5114244;28;20246;-71
2022/07/06 01:38:01;;;;;;;0.40;0.40;;;15.50;99.90;;;;;;5112490;28;20192;-69
2022/07/06 01:40:49;;;;;;;0.40;0.40;;;15.60;99.90;;;;;;5111464;28;20200;-70
2022/07/06 01:43:37;;;;;;;0.40;0.40;;;15.70;99.90;;;;;;5111286;28;20203;-71
2022/07/06 01:46:25;;;;;;;0.47;0.47;;;15.70;99.90;;;;;;5111590;28;20220;-69
2022/07/06 01:49:14;;;;;;;0.40;0.40;;;15.70;99.90;;;;;;5112259;28;20200;-70
2022/07/06 01:52:02;;;;;;;0.40;0.40;;;15.70;99.90;;;;;;5105853;28;20265;-69
2022/07/06 01:54:51;;;;;;;0.40;0.40;;;15.80;99.90;;;;;;5092930;28;20221;-70
2022/07/06 01:57:39;;;;;;;0.65;0.65;;;15.90;99.90;;;;;;5111198;28;20289;-70
2022/07/06 02:00:27;;;;;;;0.40;0.40;;;15.80;99.90;;;;;;5113422;28;20211;-70
2022/07/06 02:03:15;;;;;;;0.40;0.40;;;15.90;99.90;;;;;;5115710;28;20204;-70
2022/07/06 02:06:04;;;;;;;0.50;0.50;;;15.90;99.90;;;;;;5113554;28;20223;-70
2022/07/06 02:08:53;;;;;;;0.88;0.60;;;15.90;99.90;;;;;;5113933;28;20196;-69
2022/07/06 02:11:43;;;;;;;0.50;0.40;;;15.90;99.90;;;;;;5114185;28;20229;-70
2022/07/06 02:14:31;;;;;;;0.45;0.45;;;15.80;99.90;;;;;;5114302;28;20216;-70
2022/07/06 02:17:19;;;;;;;0.40;0.40;;;16.00;99.90;;;;;;5113269;28;20224;-69
2022/07/06 02:20:08;;;;;;;0.40;0.40;;;15.80;99.90;;;;;;5106478;28;20215;-69
2022/07/06 02:22:56;;;;;;;0.47;0.47;;;15.80;99.90;;;;;;5110452;28;20229;-70
2022/07/06 02:25:45;;;;;;;2.92;2.67;;;15.80;99.90;;;;;;5111567;28;20207;-70
2022/07/06 02:28:34;;;;;;;0.40;0.40;;;15.80;99.90;;;;;;5110430;28;20221;-70
2022/07/06 02:31:22;;;;;;;0.50;0.50;;;15.90;99.90;;;;;;5109670;28;20260;-71
2022/07/06 02:34:10;;;;;;;0.50;0.50;;;15.90;99.90;;;;;;5113010;28;20203;-69
2022/07/06 02:37:00;;;;;;;0.50;0.50;;;15.90;99.90;;;;;;5114002;28;20229;-70
2022/07/06 02:39:48;;;;;;;0.40;0.40;;;15.90;99.90;;;;;;5116381;28;20389;-69
2022/07/06 02:42:36;;;;;;;0.50;0.50;;;15.80;99.90;;;;;;5116160;28;20204;-69
2022/07/06 02:45:26;;;;;;;0.40;0.40;;;15.90;99.90;;;;;;5116137;28;20184;-70
2022/07/06 02:48:14;;;;;;;0.40;0.40;;;16.00;99.90;;;;;;5115215;28;20251;-70
2022/07/06 02:51:02;;;;;;;0.40;0.40;;;15.80;99.90;;;;;;5114068;28;20187;-69
2022/07/06 02:53:50;;;;;;;0.40;0.40;;;15.90;99.90;;;;;;5111970;28;20226;-70
2022/07/06 02:56:38;;;;;;;0.40;0.40;;;16.00;99.90;;;;;;5112717;28;20223;-70
2022/07/06 02:59:26;;;;;;;0.40;0.40;;;15.90;99.90;;;;;;5111038;28;20196;-70
2022/07/06 03:02:15;;;;;;;0.40;0.40;;;15.90;99.90;;;;;;5110986;28;20211;-70
2022/07/06 03:05:05;;;;;;;0.40;0.40;;;15.90;99.90;;;;;;5111014;28;20222;-70
2022/07/06 03:07:53;;;;;;;0.40;0.40;;;15.90;99.90;;;;;;5112453;28;20196;-70
2022/07/06 03:10:41;;;;;;;0.40;0.40;;;15.80;99.90;;;;;;5110153;28;20201;-69
2022/07/06 03:13:29;;;;;;;0.40;0.40;;;15.80;99.90;;;;;;5109428;28;20210;-69
2022/07/06 03:16:17;;;;;;;0.40;0.40;;;15.70;99.90;;;;;;5112427;28;20235;-72
2022/07/06 03:19:06;;;;;;;0.60;0.60;;;15.70;99.90;;;;;;5110294;28;20207;-70
2022/07/06 03:21:55;;;;;;;0.40;0.40;;;15.60;99.90;;;;;;5108704;28;20207;-71
2022/07/06 03:24:43;;;;;;;0.40;0.40;;;15.40;99.90;;;;;;5110318;28;20200;-70
2022/07/06 03:27:31;;;;;;;0.60;0.60;;;15.30;99.90;;;;;;5113085;28;20234;-71
2022/07/06 03:30:19;;;;;;;0.60;0.60;;;15.20;99.90;;;;;;5117856;28;20204;-69
2022/07/06 03:33:07;;;;;;;0.40;0.40;;;15.00;99.90;;;;;;5118777;28;20191;-69
2022/07/06 03:35:57;;;;;;;0.50;0.50;;;15.10;99.90;;;;;;5116604;28;20839;-69
2022/07/06 03:38:45;;;;;;;0.40;0.40;;;15.10;99.90;;;;;;5117937;28;20448;-69
2022/07/06 03:41:33;;;;;;;0.40;0.40;;;15.30;99.90;;;;;;5117645;28;20204;-69
2022/07/06 03:44:21;;;;;;;0.40;0.40;;;15.40;99.90;;;;;;5116796;28;20200;-69
2022/07/06 03:47:09;;;;;;;0.40;0.40;;;15.60;99.90;;;;;;5115049;28;20216;-70
2022/07/06 03:49:57;;;;;;;0.40;0.40;;;15.60;99.90;;;;;;5113184;28;20204;-70
2022/07/06 03:52:47;;;;;;;0.50;0.50;;;15.70;99.90;;;;;;5114437;28;20204;-69
2022/07/06 03:55:35;;;;;;;0.53;0.50;;;15.70;99.90;;;;;;5112888;28;20215;-70
2022/07/06 03:58:23;;;;;;;0.50;0.50;;;15.80;99.90;;;;;;5112713;28;20253;-71
2022/07/06 04:01:11;;;;;;;0.40;0.40;;;15.80;99.90;;;;;;5113502;28;20218;-70
2022/07/06 04:04:00;;;;;;;0.60;0.60;;;15.80;99.90;;;;;;5113079;28;20203;-70
2022/07/06 04:06:48;;;;;;;1.13;1.03;;;15.80;99.90;;;;;;5110221;28;20245;-71
2022/07/06 04:09:37;;;;;;;0.40;0.40;;;15.80;99.90;;;;;;5111369;28;20208;-70
2022/07/06 04:12:26;;;;;;;0.40;0.40;;;15.80;99.90;;;;;;5110001;28;20211;-71
2022/07/06 04:15:14;;;;;;;0.40;0.40;;;15.80;99.90;;;;;;5099083;28;20196;-70
2022/07/06 04:18:02;;;;;;;0.40;0.40;;;15.70;99.90;;;;;;5096526;28;20207;-70
2022/07/06 04:20:50;;;;;;;0.40;0.40;;;15.70;99.90;;;;;;5096275;28;20265;-71
2022/07/06 04:23:38;;;;;;;0.40;0.40;;;15.60;99.90;;;;;;5098289;28;20196;-70
2022/07/06 04:26:27;;;;;;;0.40;0.40;;;15.60;99.90;;;;;;5096920;28;20329;-70
2022/07/06 04:29:15;;;;;;;0.50;0.50;;;15.50;99.90;;;;;;5100247;28;20200;-71
2022/07/06 04:32:04;;;;;;;0.60;0.50;;;15.40;99.90;;;;;;5107537;28;20196;-70
2022/07/06 04:34:53;;;;;;;0.57;0.57;;;15.30;99.90;;;;;;5108849;28;20214;-70
2022/07/06 04:37:41;;;;;;;0.40;0.40;;;15.30;99.90;;;;;;5107500;28;20691;-70
2022/07/06 04:40:29;;;;;;;0.40;0.40;;;15.20;99.90;;;;;;5102219;28;20811;-70
2022/07/06 04:43:18;;;;;;;0.40;0.40;;;15.30;99.90;;;;;;5106024;28;20200;-70
2022/07/06 04:46:06;;;;;;;0.50;0.50;;;15.20;99.90;;;;;;5097597;28;20265;-70
2022/07/06 04:48:54;;;;;;;0.40;0.40;;;15.10;99.90;;;;;;5098933;28;20195;-70
2022/07/06 04:51:42;;;;;;;0.40;0.40;;;15.10;99.90;;;;;;5104633;28;20200;-71
2022/07/06 04:54:30;;;;;;;0.60;0.60;;;15.00;99.90;;;;;;5109377;28;20418;-70
2022/07/06 04:57:18;;;;;;;2.50;2.40;;;15.20;99.90;;;;;;5112962;28;20208;-70
2022/07/06 05:00:09;;;;;;;0.60;0.60;;;15.40;99.90;;;;;;5114262;28;20430;-70
2022/07/06 05:02:57;;;;;;;0.70;0.70;;;15.40;99.90;;;;;;5115025;28;20422;-70
2022/07/06 05:05:45;;;;;;;0.83;0.80;;;15.40;99.90;;;;;;5115382;28;20239;-70
2022/07/06 05:08:33;;;;;;;0.40;0.40;;;15.50;99.90;;;;;;5114438;28;20196;-70
2022/07/06 05:11:21;;;;;;;0.40;0.40;;;15.40;99.90;;;;;;5110451;28;20208;-70
2022/07/06 05:14:10;;;;;;;0.50;0.50;;;15.40;99.90;;;;;;5109118;28;20207;-70
2022/07/06 05:16:59;;;;;;;0.60;0.60;;;15.50;99.90;;;;;;5105284;28;20277;-70
2022/07/06 05:19:47;;;;;;;0.60;0.60;;;15.40;99.90;;;;;;5105506;28;20200;-70
2022/07/06 05:22:36;;;;;;;0.60;0.60;;;15.40;99.90;;;;;;5098945;28;20200;-70
2022/07/06 05:25:33;;;;;;;0.50;0.50;;;15.50;99.90;;;;;;5095546;28;20282;-70
2022/07/06 05:28:21;;;;;;;0.50;0.50;;;15.60;99.90;;;;;;5093145;28;20192;-71
2022/07/06 05:31:09;;;;;;;0.40;0.40;;;15.60;99.90;;;;;;5095373;28;20200;-70
2022/07/06 05:33:59;;;;;;;0.50;0.50;;;15.70;99.90;;;;;;5094430;28;20524;-71
2022/07/06 05:36:47;;;;;;;0.40;0.40;;;15.80;99.90;;;;;;5093907;28;20703;-71
2022/07/06 05:39:35;;;;;;;0.50;0.50;;;15.80;99.90;;;;;;5090762;28;20196;-69
2022/07/06 05:42:27;;;;;;;0.40;0.40;;;15.80;99.90;;;;;;5074542;28;20789;-70
2022/07/06 05:45:15;;;;;;;0.40;0.40;;;15.80;99.90;;;;;;5074673;28;20201;-70
2022/07/06 05:51:10;;;;;;;0.40;0.40;;;15.90;99.90;;;;;;5073272;28;20212;-70
2022/07/06 05:53:58;;;;;;;0.47;0.47;;;15.90;99.90;;;;;;5074893;28;20207;-70
2022/07/06 05:56:46;;;;;;;0.70;0.70;;;16.00;99.90;;;;;;5079925;28;20594;-70
2022/07/06 05:59:34;;;;;;;1.33;0.60;;;16.10;99.90;;;;;;5069538;28;20197;-70
2022/07/06 06:02:22;;;;;;;0.53;0.53;;;16.10;99.90;;;;;;5080451;28;20227;-71
2022/07/06 06:05:11;;;;;;;2.60;0.60;;;16.00;99.90;;;;;;5092312;28;20200;-69
2022/07/06 06:08:05;;;;;;;0.40;0.40;;;16.10;99.90;;;;;;5093148;28;20654;-68
2022/07/06 06:10:54;;;;;;;0.60;0.60;;;16.10;99.90;;;;;;5098503;28;20215;-69
2022/07/06 06:13:42;;;;;;;0.50;0.50;;;16.20;99.90;;;;;;5117221;28;20207;-69
2022/07/06 06:16:30;;;;;;;0.40;0.40;;;16.30;99.90;;;;;;5132405;27;20219;-69
2022/07/06 06:19:18;;;;;;;0.50;0.43;;;16.40;99.90;;;;;;5134227;27;20199;-69
2022/07/06 06:22:06;;;;;;;0.50;0.50;;;16.40;99.90;;;;;;5091814;28;20192;-70
2022/07/06 06:24:56;;;;;;;8.23;1.80;;;16.40;99.90;;;;;;5089479;28;20204;-70
2022/07/06 06:27:44;;;;;;;0.85;0.85;;;16.40;99.90;;;;;;5090370;28;20215;-70
2022/07/06 06:30:32;;;;;;;0.50;0.50;;;16.50;99.90;;;;;;5110639;28;20210;-70
2022/07/06 06:33:22;;;;;;;0.40;0.40;;;16.50;99.90;;;;;;5107542;28;20244;-70
2022/07/06 06:36:10;;;;;;;0.40;0.40;;;16.60;99.90;;;;;;5109142;28;20234;-69
2022/07/06 06:38:58;;;;;;;1.67;1.58;;;16.70;99.90;;;;;;5109201;28;20199;-69
2022/07/06 06:41:47;;;;;;;0.50;0.50;;;16.80;99.90;;;;;;5109070;28;20204;-69
2022/07/06 06:44:35;;;;;;;0.40;0.40;;;16.80;99.90;;;;;;5108332;28;20202;-70
2022/07/06 06:47:24;;;;;;;0.50;0.50;;;16.90;99.90;;;;;;5108476;28;20215;-69
2022/07/06 06:50:12;;;;;;;0.40;0.40;;;17.00;99.90;;;;;;5108927;28;20668;-70
2022/07/06 06:53:00;;;;;;;0.77;0.77;;;17.10;99.90;;;;;;5108440;28;20599;-70
2022/07/06 06:55:48;;;;;;;0.50;0.50;;;17.10;99.90;;;;;;5108455;28;20227;-70
2022/07/06 06:58:37;;;;;;;0.40;0.40;;;17.00;99.90;;;;;;5108246;28;20199;-70
2022/07/06 07:01:45;;;;;;;0.40;0.40;;;17.10;99.90;;;;;;5107779;28;20228;-70
2022/07/06 07:04:42;;;;;;;0.45;0.45;;;17.20;99.90;;;;;;5108104;28;20216;-70
2022/07/06 07:07:30;;;;;;;0.50;0.50;;;17.40;99.90;;;;;;5109836;28;20734;-70
2022/07/06 07:10:18;;;;;;;0.40;0.40;;;17.60;99.90;;;;;;5107296;28;20226;-70
2022/07/06 07:13:06;;;;;;;0.50;0.50;;;17.60;99.90;;;;;;5108268;28;20203;-70
2022/07/06 07:15:56;;;;;;;0.60;0.50;;;17.60;99.90;;;;;;5107511;28;20322;-70
2022/07/06 07:18:44;;;;;;;1.30;0.70;;;17.50;99.90;;;;;;5100540;28;20196;-70
2022/07/06 07:21:33;;;;;;;1.48;1.13;;;17.50;99.90;;;;;;5095894;28;20200;-71
2022/07/06 07:24:21;;;;;;;0.50;0.50;;;17.50;99.90;;;;;;5095025;28;20207;-70
2022/07/06 07:27:09;;;;;;;0.40;0.40;;;17.50;99.90;;;;;;5094542;28;20223;-70
2022/07/06 07:29:57;;;;;;;0.40;0.40;;;17.50;99.90;;;;;;5095658;28;20196;-70
2022/07/06 07:32:47;;;;;;;0.40;0.40;;;17.60;99.90;;;;;;5103565;28;20199;-70
2022/07/06 07:35:35;;;;;;;0.40;0.40;;;17.70;99.90;;;;;;5108823;28;20199;-69
2022/07/06 07:38:23;;;;;;;0.68;0.50;;;17.70;99.90;;;;;;5115289;28;20265;-70
2022/07/06 07:41:13;;;;;;;0.50;0.50;;;17.90;99.90;;;;;;5116963;28;20199;-69
2022/07/06 07:44:02;;;;;;;0.50;0.50;;;18.00;99.90;;;;;;5115888;28;20199;-69
2022/07/06 07:46:50;;;;;;;0.40;0.40;;;18.10;99.90;;;;;;5116258;28;20215;-70
2022/07/06 07:49:39;;;;;;;0.60;0.60;;;18.00;99.90;;;;;;5116215;28;20578;-69
2022/07/06 07:52:27;;;;;;;0.40;0.40;;;18.10;99.90;;;;;;5116024;28;20203;-70
2022/07/06 07:55:15;;;;;;;0.55;0.55;;;18.10;99.90;;;;;;5122847;28;20195;-70
2022/07/06 07:58:24;;;;;;;0.50;0.50;;;18.30;99.90;;;;;;5125436;28;20200;-70
2022/07/06 08:01:13;;;;;;;0.40;0.40;;;18.50;99.90;;;;;;5128945;28;20219;-69
2022/07/06 08:04:01;;;;;;;0.50;0.50;;;18.80;99.90;;;;;;5123297;28;20229;-69
2022/07/06 08:06:51;;;;;;;0.40;0.40;;;19.00;99.90;;;;;;5112867;28;20220;-69
2022/07/06 08:09:44;;;;;;;0.50;0.50;;;19.10;99.90;;;;;;5103715;28;20565;-70
2022/07/06 08:12:33;;;;;;;0.50;0.50;;;19.30;99.90;;;;;;5103687;28;20609;-70
2022/07/06 08:15:21;;;;;;;0.40;0.40;;;19.40;99.90;;;;;;5098132;28;20204;-71
2022/07/06 08:18:10;;;;;;;0.40;0.40;;;19.50;99.90;;;;;;5098784;28;20207;-71
2022/07/06 08:20:58;;;;;;;2.30;0.68;;;19.80;99.90;;;;;;5095696;28;20279;-71
2022/07/06 08:24:08;;;;;;;0.40;0.40;;;19.80;99.90;;;;;;5099030;28;20267;-71
2022/07/06 08:26:58;;;;;;;0.40;0.40;;;19.50;99.90;;;;;;5079580;28;20600;-71
2022/07/06 08:29:46;;;;;;;1.75;0.82;;;19.70;99.90;;;;;;5096421;28;20196;-70
2022/07/06 08:32:37;;;;;;;0.47;0.47;;;19.80;99.90;;;;;;5099979;28;20210;-71
2022/07/06 08:35:46;;;;;;;0.52;0.52;;;19.80;99.90;;;;;;5097733;28;20302;-71
2022/07/06 08:38:34;;;;;;;0.70;0.70;;;19.70;99.90;;;;;;5098083;28;20199;-71
2022/07/06 08:41:27;;;;;;;0.57;0.50;;;19.40;99.90;;;;;;5099201;28;20232;-70
2022/07/06 08:44:15;;;;;;;0.40;0.40;;;19.50;99.90;;;;;;5099328;28;20211;-71
2022/07/06 08:47:06;;;;;;;0.40;0.40;;;19.60;99.90;;;;;;5096616;28;20219;-71
2022/07/06 08:49:54;;;;;;;0.40;0.40;;;19.80;99.90;;;;;;5094833;28;20196;-70
2022/07/06 08:52:42;;;;;;;0.50;0.50;;;19.90;99.90;;;;;;5094259;28;20219;-71
2022/07/06 08:55:30;;;;;;;0.40;0.40;;;19.90;99.90;;;;;;5094988;28;20223;-71
2022/07/06 08:58:20;;;;;;;0.55;0.55;;;20.00;99.90;;;;;;5094963;28;20200;-72
2022/07/06 09:01:10;;;;;;;0.50;0.50;;;20.00;99.90;;;;;;5096030;28;20204;-70
2022/07/06 09:04:01;;;;;;;0.40;0.40;;;19.80;99.90;;;;;;5095328;28;20336;-71
2022/07/06 09:06:50;;;;;;;0.40;0.40;;;19.70;99.90;;;;;;5104393;28;20227;-71
2022/07/06 09:09:39;;;;;;;0.50;0.50;;;19.60;99.90;;;;;;5116575;28;20214;-71
2022/07/06 09:12:28;;;;;;;0.40;0.40;;;19.60;99.90;;;;;;5119048;28;20695;-70
2022/07/06 09:15:17;;;;;;;0.40;0.40;;;19.90;99.90;;;;;;5116548;28;20203;-70
2022/07/06 09:18:06;;;;;;;0.45;0.45;;;20.20;99.90;;;;;;5116328;28;20187;-72
2022/07/06 09:20:55;;;;;;;0.60;0.50;;;20.40;99.90;;;;;;5116785;28;20191;-70
2022/07/06 09:23:43;;;;;;;0.50;0.50;;;20.60;98.40;;;;;;5117159;28;20203;-72
2022/07/06 09:26:31;;;;;;;0.85;0.50;;;20.60;97.50;;;;;;5119835;28;20227;-68
2022/07/06 09:29:19;;;;;;;0.60;0.40;;;20.80;97.30;;;;;;5099624;28;20220;-68
2022/07/06 09:32:20;;;;;;;0.40;0.40;;;20.80;97.70;;;;;;5101481;28;20234;-68
2022/07/06 09:35:09;;;;;;;0.50;0.50;;;20.60;94.50;;;;;;5102686;28;20253;-69
2022/07/06 09:38:03;;;;;;;0.50;0.50;;;20.40;93.40;;;;;;5108656;28;20196;-69
2022/07/06 09:40:51;;;;;;;0.45;0.45;;;20.40;92.40;;;;;;5106911;28;20277;-69
2022/07/06 09:43:39;;;;;;;0.40;0.40;;;20.60;93.30;;;;;;5110929;28;20211;-69
2022/07/06 09:46:27;;;;;;;0.40;0.40;;;21.00;93.40;;;;;;5107663;28;20220;-69
2022/07/06 09:49:19;;;;;;;0.40;0.40;;;21.40;91.60;;;;;;5107441;28;20216;-69
2022/07/06 09:52:09;;;;;;;0.43;0.43;;;21.40;89.20;;;;;;5109876;28;20196;-69
2022/07/06 09:54:57;;;;;;;0.40;0.40;;;21.40;88.40;;;;;;5107122;28;20207;-69
2022/07/06 09:57:54;;;;;;;0.40;0.40;;;21.20;90.00;;;;;;5107828;28;20264;-70
2022/07/06 10:00:43;;;;;;;0.50;0.50;;;21.10;87.80;;;;;;5107148;28;20211;-69
2022/07/06 10:03:31;;;;;;;0.40;0.40;;;21.00;86.50;;;;;;5109344;28;20205;-69
2022/07/06 10:06:21;;;;;;;0.40;0.40;;;21.00;87.00;;;;;;5114177;28;20306;-69
2022/07/06 10:09:10;;;;;;;0.40;0.40;;;21.10;88.90;;;;;;5123815;28;20225;-70
2022/07/06 10:12:02;;;;;;;0.50;0.50;;;21.20;89.30;;;;;;5127630;28;20210;-69
2022/07/06 10:14:52;;;;;;;0.77;0.52;;;21.20;88.90;;;;;;5123800;28;20229;-69
2022/07/06 10:17:41;;;;;;;0.40;0.40;;;20.80;88.70;;;;;;5123953;28;20207;-69
2022/07/06 10:20:31;;;;;;;0.50;0.50;;;20.60;90.50;;;;;;5124651;28;20230;-69
2022/07/06 10:23:22;;;;;;;0.43;0.43;;;20.70;90.30;;;;;;5125645;28;20203;-69
2022/07/06 10:26:11;;;;;;;0.50;0.50;;;20.90;90.40;;;;;;5126126;28;20211;-72
2022/07/06 10:29:01;;;;;;;0.40;0.40;;;21.30;90.50;;;;;;5123304;28;20226;-69
2022/07/06 10:31:51;;;;;;;0.50;0.40;;;21.60;90.40;;;;;;5125135;28;20249;-69
2022/07/06 10:34:39;;;;;;;0.40;0.40;;;21.80;90.10;;;;;;5119271;28;20195;-69
2022/07/06 10:37:28;;;;;;;0.75;0.75;;;21.60;90.20;;;;;;5120440;28;20234;-73
2022/07/06 10:43:42;;;;;;;0.40;0.40;;;21.80;87.30;;;;;;5114716;28;20199;-71
2022/07/06 10:46:36;;;;;;;0.70;0.70;;;21.30;85.40;;;;;;5131249;22;20219;-73
2022/07/06 10:49:25;;;;;;;1.65;1.55;;;21.30;86.30;;;;;;5049418;28;20217;-73
2022/07/06 10:52:50;;;;;;;0.40;0.40;;;21.40;87.00;;;;;;5049837;28;20382;-72
2022/07/06 10:55:40;;;;;;;0.50;0.50;;;21.50;87.90;;;;;;5053590;28;20205;-73
2022/07/06 10:58:40;;;;;;;0.40;0.40;;;22.10;88.20;;;;;;5052179;28;20224;-73
2022/07/06 11:01:29;;;;;;;0.50;0.50;;;22.30;87.80;;;;;;5053518;28;20213;-74
2022/07/06 11:04:17;;;;;;;0.40;0.40;;;22.20;88.30;;;;;;5052722;28;20204;-74
2022/07/06 11:07:09;;;;;;;0.93;0.93;;;22.10;88.70;;;;;;5052915;28;20713;-71
2022/07/06 11:09:59;;;;;;;0.40;0.40;;;22.40;88.40;;;;;;5052640;28;20267;-73
2022/07/06 11:12:59;;;;;;;0.50;0.50;;;22.40;86.10;;;;;;5053071;28;20578;-72
2022/07/06 11:15:48;;;;;;;0.50;0.50;;;22.60;84.90;;;;;;5052934;28;20197;-74
2022/07/06 11:18:40;;;;;;;0.50;0.50;;;22.80;85.00;;;;;;5052765;28;20213;-74
2022/07/06 11:21:37;;;;;;;0.70;0.70;;;22.90;85.70;;;;;;5052663;28;20681;-72
2022/07/06 11:24:27;;;;;;;0.73;0.73;;;22.60;86.00;;;;;;5054104;28;20227;-76
2022/07/06 11:27:15;;;;;;;0.40;0.40;;;22.40;87.00;;;;;;5052476;28;20608;-72
2022/07/06 11:30:06;;;;;;;0.50;0.50;;;22.10;87.80;;;;;;5061130;28;20217;-74
2022/07/06 11:32:55;;;;;;;0.50;0.50;;;22.10;88.10;;;;;;5059049;28;20189;-71
2022/07/06 11:35:43;;;;;;;0.40;0.40;;;22.20;89.10;;;;;;5052905;28;20200;-72
2022/07/06 11:38:31;;;;;;;0.50;0.50;;;22.30;88.20;;;;;;5054270;28;20773;-73
2022/07/06 11:41:19;;;;;;;0.50;0.50;;;22.00;88.30;;;;;;5054615;28;20201;-70
2022/07/06 11:44:07;;;;;;;0.50;0.50;;;22.10;88.00;;;;;;5054642;28;20208;-74
2022/07/06 11:47:00;;;;;;;1.77;1.67;;;22.40;87.80;;;;;;5057436;28;20228;-72
2022/07/06 11:49:51;;;;;;;0.50;0.50;;;22.90;84.50;;;;;;5070290;28;20659;-71
2022/07/06 11:52:39;;;;;;;0.50;0.50;;;23.30;84.70;;;;;;5078638;28;20266;-76
2022/07/06 11:55:29;;;;;;;0.40;0.40;;;23.10;83.40;;;;;;5071991;28;20215;-73
2022/07/06 11:58:20;;;;;;;0.50;0.50;;;22.50;85.60;;;;;;5070219;28;20220;-71
2022/07/06 12:01:10;;;;;;;0.50;0.50;;;22.10;86.30;;;;;;5066008;28;20193;-74
2022/07/06 12:04:03;;;;;;;0.40;0.40;;;22.00;86.60;;;;;;5052823;28;20616;-76
2022/07/06 12:06:52;;;;;;;0.45;0.45;;;22.50;85.60;;;;;;5054024;28;20709;-73
2022/07/06 12:09:41;;;;;;;0.50;0.50;;;22.80;83.50;;;;;;5061819;28;20619;-72
2022/07/06 12:12:29;;;;;;;0.40;0.40;;;23.00;83.50;;;;;;5061093;28;20197;-73
2022/07/06 12:15:27;;;;;;;0.45;0.45;;;23.80;83.30;;;;;;5059466;28;20202;-72
2022/07/06 12:18:15;;;;;;;0.50;0.50;;;23.50;82.70;;;;;;5064103;28;20650;-75
2022/07/06 12:21:05;;;;;;;0.45;0.45;;;23.60;81.20;;;;;;5059355;28;20201;-73
2022/07/06 12:23:54;;;;;;;1.17;1.08;;;23.30;81.40;;;;;;5073276;28;20220;-76
2022/07/06 12:26:43;;;;;;;0.60;0.60;;;23.10;81.30;;;;;;5062994;28;20709;-73
2022/07/06 12:29:31;;;;;;;0.60;0.60;;;22.90;81.20;;;;;;5059715;28;20224;-73
2022/07/06 12:32:22;;;;;;;1.27;1.10;;;23.30;82.20;;;;;;5060521;28;20193;-72
2022/07/06 12:35:11;;;;;;;3.92;1.90;;;24.10;79.70;;;;;;5060048;28;20193;-75
2022/07/06 12:38:01;;;;;;;2.20;2.10;;;23.90;79.80;;;;;;5061852;28;20217;-74
2022/07/06 12:40:49;;;;;;;0.50;0.50;;;24.00;79.10;;;;;;5058952;28;20279;-71
2022/07/06 12:43:39;;;;;;;0.60;0.60;;;24.40;78.80;;;;;;5063820;28;20203;-74
2022/07/06 12:46:29;;;;;;;3.22;0.82;;;24.20;78.70;;;;;;5065438;28;20203;-72
2022/07/06 12:49:20;;;;;;;1.50;0.88;;;23.70;79.20;;;;;;5070694;28;20209;-76
2022/07/06 12:52:13;;;;;;;0.68;0.68;;;23.70;79.50;;;;;;5067514;28;20723;-72
2022/07/06 12:55:05;;;;;;;0.57;0.57;;;24.00;78.30;;;;;;5052281;28;20208;-71
2022/07/06 12:57:57;;;;;;;0.50;0.50;;;24.40;78.30;;;;;;5057066;28;20618;-70
2022/07/06 13:00:46;;;;;;;0.40;0.40;;;24.90;76.60;;;;;;5061062;28;20201;-72
2022/07/06 13:03:40;;;;;;;0.40;0.40;;;25.30;74.80;;;;;;5063843;28;20285;-72
2022/07/06 13:06:32;;;;;;;0.50;0.50;;;26.10;73.80;;;;;;5062484;28;20198;-72
2022/07/06 13:09:21;;;;;;;0.50;0.50;;;26.10;70.80;;;;;;5061484;28;20236;-73
2022/07/06 13:12:11;;;;;;;0.60;0.60;;;26.30;70.90;;;;;;5061188;28;20194;-72
2022/07/06 13:14:59;;;;;;;0.50;0.40;;;26.40;69.70;;;;;;5061984;28;20235;-75
2022/07/06 13:17:47;;;;;;;0.50;0.50;;;25.00;71.10;;;;;;5059258;28;20219;-73
2022/07/06 13:20:35;;;;;;;0.40;0.40;;;24.00;72.90;;;;;;5061752;28;20200;-72
2022/07/06 13:23:23;;;;;;;0.40;0.40;;;23.80;73.80;;;;;;5058722;28;20201;-71
2022/07/06 13:26:12;;;;;;;0.60;0.60;;;23.80;74.70;;;;;;5061130;28;20566;-73
2022/07/06 13:29:03;;;;;;;0.50;0.50;;;23.80;73.80;;;;;;5059504;28;20192;-72
2022/07/06 13:31:51;;;;;;;0.55;0.55;;;23.90;73.80;;;;;;5057742;28;20201;-72
2022/07/06 13:34:40;;;;;;;0.40;0.40;;;24.00;72.60;;;;;;5059460;28;20677;-73
2022/07/06 13:37:28;;;;;;;0.40;0.40;;;23.90;72.90;;;;;;5058372;28;20697;-73
2022/07/06 13:40:16;;;;;;;0.40;0.40;;;23.70;74.20;;;;;;5061129;28;20324;-71
2022/07/06 13:43:04;;;;;;;0.52;0.52;;;23.40;75.70;;;;;;5057794;28;20201;-73
2022/07/06 13:45:53;;;;;;;0.40;0.40;;;22.60;76.50;;;;;;5061671;28;20201;-73
2022/07/06 13:48:42;;;;;;;0.40;0.40;;;22.00;78.70;;;;;;5051298;28;20236;-72
2022/07/06 13:51:32;;;;;;;2.70;2.53;;;21.50;79.60;;;;;;5059274;28;20217;-74
2022/07/06 13:54:20;;;;;;;1.45;0.60;;;21.20;80.40;;;;;;5055956;28;20299;-74
2022/07/06 13:57:08;;;;;;;0.50;0.50;;;21.10;80.80;;;;;;5058293;28;20700;-74
2022/07/06 13:59:56;;;;;;;0.50;0.50;;;21.00;81.60;;;;;;5061178;28;20228;-71
2022/07/06 14:02:46;;;;;;;0.52;0.52;;;21.00;81.60;;;;;;5060115;28;20196;-73
2022/07/06 14:05:34;;;;;;;0.60;0.60;;;20.90;81.20;;;;;;5058128;28;20197;-74
2022/07/06 14:08:22;;;;;;;0.50;0.50;;;20.80;80.90;;;;;;5051724;28;20229;-73
2022/07/06 14:11:11;;;;;;;0.40;0.40;;;20.60;81.40;;;;;;5054039;28;20219;-74
2022/07/06 14:13:59;;;;;;;0.50;0.50;;;20.40;81.90;;;;;;5060242;28;20202;-76
2022/07/06 14:16:47;;;;;;;0.50;0.50;;;20.50;82.50;;;;;;5061390;28;20239;-71
2022/07/06 14:19:37;;;;;;;4.10;0.80;;;20.40;82.40;;;;;;5060682;28;20670;-75
2022/07/06 14:22:25;;;;;;;0.50;0.50;;;20.30;82.90;;;;;;5060316;28;20209;-72
2022/07/06 14:25:13;;;;;;;0.63;0.63;;;20.30;83.80;;;;;;5058777;28;20198;-76
2022/07/06 14:28:02;;;;;;;0.60;0.60;;;20.10;84.50;;;;;;5063034;28;20232;-72
2022/07/06 14:30:51;;;;;;;0.95;0.80;;;19.90;84.90;;;;;;5064431;28;20217;-73
2022/07/06 14:33:39;;;;;;;0.60;0.60;;;19.70;85.20;;;;;;5066029;28;20194;-72
2022/07/06 14:36:28;;;;;;;0.60;0.60;;;19.70;86.00;;;;;;5064371;28;20205;-76
2022/07/06 14:39:17;;;;;;;0.70;0.70;;;19.70;86.60;;;;;;5076564;28;20699;-71
2022/07/06 14:42:05;;;;;;;0.50;0.50;;;19.40;86.40;;;;;;5066000;28;20199;-70
2022/07/06 14:44:54;;;;;;;0.70;0.70;;;19.40;86.60;;;;;;5067281;28;20204;-71
2022/07/06 14:47:42;;;;;;;2.67;1.02;;;19.50;86.70;;;;;;5065496;28;20221;-73
2022/07/06 14:50:30;;;;;;;0.40;0.40;;;19.50;87.20;;;;;;5065202;28;20584;-74
2022/07/06 14:53:19;;;;;;;0.50;0.50;;;19.70;87.30;;;;;;5058079;28;20197;-75